Time;durP1;ratioP1;P1;durP2;ratioP2;P2;SDS_P1;SDS_P2;PMS_P1;PMS_P2;Temp;Humidity;BMP_temperature;BMP_pressure;BME280_temperature;BME280_humidity;BME280_pressure;Samples;Min_cycle;Max_cycle;Signal;HPM_P1;HPM_P2
2022/08/06 00:01:01;;;;;;;2.03;1.38;;;21.90;75.80;;;;;;5053346;28;20173;-68
2022/08/06 00:03:26;;;;;;;3.30;1.50;;;22.00;74.70;;;;;;5053172;28;20656;-68
2022/08/06 00:05:52;;;;;;;2.55;1.30;;;22.00;75.30;;;;;;5053687;28;20193;-67
2022/08/06 00:08:17;;;;;;;2.15;1.20;;;22.00;74.70;;;;;;5053531;28;20185;-68
2022/08/06 00:10:43;;;;;;;1.95;1.40;;;22.00;74.60;;;;;;5053160;28;20180;-67
2022/08/06 00:13:10;;;;;;;2.22;1.52;;;21.90;75.10;;;;;;5053585;28;20197;-67
2022/08/06 00:15:36;;;;;;;0.85;0.85;;;21.90;74.80;;;;;;5052537;28;20181;-68
2022/08/06 00:18:02;;;;;;;1.30;1.20;;;21.80;73.70;;;;;;5052707;28;20184;-67
2022/08/06 00:20:27;;;;;;;1.42;1.33;;;21.70;74.50;;;;;;5053655;28;20184;-67
2022/08/06 00:22:53;;;;;;;1.40;1.30;;;21.60;75.10;;;;;;5052117;28;20320;-67
2022/08/06 00:25:19;;;;;;;2.08;1.50;;;21.60;75.30;;;;;;5052791;28;20181;-67
2022/08/06 00:27:44;;;;;;;1.70;1.30;;;21.50;75.90;;;;;;5053485;28;20182;-67
2022/08/06 00:30:10;;;;;;;2.45;1.27;;;21.40;75.60;;;;;;5053114;28;20185;-68
2022/08/06 00:32:36;;;;;;;2.42;1.45;;;21.40;75.90;;;;;;5051935;28;20648;-67
2022/08/06 00:35:02;;;;;;;28.17;17.80;;;21.40;75.50;;;;;;5053409;28;20257;-67
2022/08/06 00:37:28;;;;;;;10.52;7.25;;;21.30;75.40;;;;;;5052976;28;20612;-67
2022/08/06 00:39:55;;;;;;;7.70;5.53;;;21.30;75.30;;;;;;5052901;28;20224;-67
2022/08/06 00:42:21;;;;;;;4.95;2.92;;;21.20;75.50;;;;;;5052296;28;20191;-67
2022/08/06 00:44:46;;;;;;;5.68;2.20;;;21.20;75.80;;;;;;5052875;28;20193;-66
2022/08/06 00:47:12;;;;;;;3.38;1.50;;;21.20;75.40;;;;;;5052786;28;20717;-67
2022/08/06 00:49:37;;;;;;;1.80;1.25;;;21.20;75.80;;;;;;5052896;28;20272;-66
2022/08/06 00:52:03;;;;;;;1.30;1.15;;;21.30;75.40;;;;;;5052464;28;20177;-66
2022/08/06 00:54:29;;;;;;;1.58;1.33;;;21.30;75.00;;;;;;5052593;28;20186;-66
2022/08/06 00:56:54;;;;;;;4.63;1.30;;;21.20;75.10;;;;;;5052646;28;20177;-66
2022/08/06 00:59:20;;;;;;;2.92;1.10;;;21.10;75.40;;;;;;5052421;28;20181;-66
2022/08/06 01:01:45;;;;;;;1.25;1.15;;;21.10;75.90;;;;;;5052225;28;20522;-66
2022/08/06 01:04:11;;;;;;;1.00;1.00;;;21.10;76.30;;;;;;5051657;28;20221;-67
2022/08/06 01:06:36;;;;;;;5.95;3.85;;;21.00;76.20;;;;;;5052106;28;20170;-67
2022/08/06 01:09:02;;;;;;;8.80;5.70;;;21.00;76.40;;;;;;5052112;28;20265;-67
2022/08/06 01:11:28;;;;;;;4.88;2.88;;;21.00;76.40;;;;;;5050937;28;20512;-66
2022/08/06 01:13:53;;;;;;;2.50;2.25;;;21.00;76.50;;;;;;5050940;28;20192;-67
2022/08/06 01:16:46;;;;;;;1.52;1.40;;;21.00;76.80;;;;;;5051757;28;20177;-66
2022/08/06 01:19:40;;;;;;;1.65;1.33;;;21.00;76.70;;;;;;5052080;28;20178;-67
2022/08/06 01:22:13;;;;;;;2.03;1.30;;;20.90;77.40;;;;;;5051859;28;20180;-67
2022/08/06 01:25:01;;;;;;;2.25;1.38;;;20.90;77.30;;;;;;5051307;28;20217;-66
2022/08/06 01:28:04;;;;;;;1.98;1.20;;;21.00;77.80;;;;;;5051770;28;20189;-66
2022/08/06 01:30:35;;;;;;;1.92;1.52;;;21.00;77.20;;;;;;5052184;28;20583;-67
2022/08/06 01:33:14;;;;;;;1.50;1.40;;;20.90;77.70;;;;;;5051557;28;20185;-66
2022/08/06 01:35:44;;;;;;;1.33;1.10;;;21.00;77.30;;;;;;5035334;28;20177;-67
2022/08/06 01:38:16;;;;;;;3.65;1.25;;;20.90;77.40;;;;;;5051929;28;20193;-67
2022/08/06 01:40:44;;;;;;;2.25;1.30;;;20.90;77.70;;;;;;5051724;28;20529;-67
2022/08/06 01:43:13;;;;;;;1.48;1.00;;;21.00;77.40;;;;;;5051297;28;20245;-66
2022/08/06 01:45:40;;;;;;;1.60;1.20;;;20.90;76.90;;;;;;5050015;28;20261;-67
2022/08/06 01:48:11;;;;;;;1.85;1.20;;;20.90;77.30;;;;;;5051647;28;20537;-66
2022/08/06 01:50:45;;;;;;;2.15;1.35;;;20.90;77.20;;;;;;5051329;28;20181;-66
2022/08/06 01:53:14;;;;;;;2.97;1.20;;;20.80;77.30;;;;;;5050914;28;20611;-67
2022/08/06 01:55:44;;;;;;;1.77;1.13;;;20.80;77.70;;;;;;5050992;28;20184;-67
2022/08/06 01:58:10;;;;;;;1.42;1.30;;;20.70;77.50;;;;;;5042865;28;20174;-67
2022/08/06 02:00:41;;;;;;;1.60;1.20;;;20.70;77.90;;;;;;5051542;28;20178;-67
2022/08/06 02:03:14;;;;;;;9.63;6.80;;;20.70;77.50;;;;;;5050775;28;20275;-66
2022/08/06 02:05:41;;;;;;;5.65;4.45;;;20.70;77.80;;;;;;5051217;28;20656;-67
2022/08/06 02:08:10;;;;;;;7.13;5.07;;;20.60;78.00;;;;;;5051149;28;20749;-67
2022/08/06 02:10:36;;;;;;;2.85;1.83;;;20.50;78.40;;;;;;5051397;28;20236;-66
2022/08/06 02:13:03;;;;;;;4.50;2.63;;;20.50;78.70;;;;;;5051348;28;20189;-66
2022/08/06 02:15:32;;;;;;;2.97;2.25;;;20.50;78.80;;;;;;5050767;28;20188;-66
2022/08/06 02:18:01;;;;;;;5.13;2.88;;;20.50;79.10;;;;;;5050784;28;20182;-66
2022/08/06 02:20:32;;;;;;;3.13;1.48;;;20.50;79.30;;;;;;5051155;28;20189;-66
2022/08/06 02:23:00;;;;;;;2.42;1.77;;;20.40;79.60;;;;;;5050657;28;20815;-67
2022/08/06 02:25:27;;;;;;;2.35;1.90;;;20.50;79.80;;;;;;5049555;28;20177;-66
2022/08/06 02:27:56;;;;;;;1.75;1.35;;;20.50;79.50;;;;;;5051054;28;20205;-66
2022/08/06 02:30:24;;;;;;;2.58;1.40;;;20.50;79.70;;;;;;5049483;28;20177;-66
2022/08/06 02:32:50;;;;;;;2.35;1.30;;;20.50;79.60;;;;;;5050831;28;20185;-66
2022/08/06 02:35:15;;;;;;;1.35;1.25;;;20.50;79.70;;;;;;5050497;28;20235;-67
2022/08/06 02:37:47;;;;;;;1.35;1.25;;;20.50;79.50;;;;;;5050649;28;20188;-66
2022/08/06 02:40:27;;;;;;;2.65;1.55;;;20.40;79.90;;;;;;5051009;28;20209;-66
2022/08/06 02:43:01;;;;;;;1.50;1.40;;;20.30;80.00;;;;;;5050549;28;20209;-67
2022/08/06 02:45:57;;;;;;;2.17;1.25;;;20.30;80.40;;;;;;5050629;28;20651;-66
2022/08/06 02:48:41;;;;;;;1.55;1.45;;;20.20;80.70;;;;;;5049774;28;20281;-67
2022/08/06 02:51:15;;;;;;;3.15;1.33;;;20.10;81.00;;;;;;5053196;28;20205;-67
2022/08/06 02:54:01;;;;;;;1.38;1.27;;;20.10;81.20;;;;;;5050556;28;20182;-66
2022/08/06 02:56:28;;;;;;;6.82;1.33;;;20.00;81.40;;;;;;5050521;28;20205;-67
2022/08/06 02:58:57;;;;;;;1.90;1.40;;;20.00;81.70;;;;;;5050811;28;20177;-66
2022/08/06 03:01:29;;;;;;;1.50;1.17;;;20.00;81.70;;;;;;5050841;28;20215;-67
2022/08/06 03:03:58;;;;;;;3.25;1.60;;;19.90;81.90;;;;;;5049881;28;20216;-66
2022/08/06 03:06:27;;;;;;;1.30;1.20;;;19.90;82.10;;;;;;5054372;28;20165;-67
2022/08/06 03:08:54;;;;;;;1.70;1.50;;;19.80;82.30;;;;;;5054407;28;20538;-66
2022/08/06 03:11:22;;;;;;;1.75;1.40;;;19.80;82.70;;;;;;5054290;28;20181;-67
2022/08/06 03:13:48;;;;;;;3.17;1.50;;;19.80;82.70;;;;;;5054462;28;20185;-67
2022/08/06 03:16:15;;;;;;;1.15;1.05;;;19.70;82.80;;;;;;5054367;28;20212;-66
2022/08/06 03:18:42;;;;;;;2.70;1.45;;;19.70;83.20;;;;;;5053026;28;20268;-67
2022/08/06 03:21:09;;;;;;;3.55;1.55;;;19.60;83.70;;;;;;5054132;28;20640;-66
2022/08/06 03:23:36;;;;;;;1.77;1.35;;;19.60;83.90;;;;;;5054353;28;20567;-66
2022/08/06 03:26:03;;;;;;;2.63;1.40;;;19.50;84.40;;;;;;5053810;28;20204;-67
2022/08/06 03:28:32;;;;;;;2.17;1.50;;;19.40;84.70;;;;;;5053655;28;20182;-67
2022/08/06 03:30:59;;;;;;;1.25;1.20;;;19.40;85.10;;;;;;5053721;28;20600;-66
2022/08/06 03:33:25;;;;;;;3.45;1.70;;;19.30;85.60;;;;;;5052272;28;20193;-67
2022/08/06 03:35:53;;;;;;;2.72;1.63;;;19.20;86.20;;;;;;5052784;28;20265;-66
2022/08/06 03:38:21;;;;;;;1.67;1.27;;;19.20;86.70;;;;;;5053793;28;20177;-66
2022/08/06 03:40:47;;;;;;;1.50;1.38;;;19.20;87.20;;;;;;5054338;28;20185;-68
2022/08/06 03:43:12;;;;;;;4.13;1.40;;;19.10;87.90;;;;;;5053669;28;20231;-66
2022/08/06 03:45:43;;;;;;;1.77;1.58;;;19.00;88.20;;;;;;5053408;28;20185;-67
2022/08/06 03:48:13;;;;;;;1.77;1.48;;;19.00;88.90;;;;;;5054198;28;20174;-66
2022/08/06 03:50:43;;;;;;;1.60;1.50;;;19.00;89.50;;;;;;5052996;28;20190;-66
2022/08/06 03:53:16;;;;;;;1.60;1.50;;;19.00;89.90;;;;;;5053332;28;20182;-66
2022/08/06 03:55:44;;;;;;;1.73;1.63;;;18.90;90.00;;;;;;5053666;28;20196;-67
2022/08/06 03:58:13;;;;;;;2.05;1.50;;;18.80;90.20;;;;;;5044008;28;20177;-66
2022/08/06 04:00:53;;;;;;;2.15;1.70;;;18.90;90.40;;;;;;5053455;28;20205;-66
2022/08/06 04:03:20;;;;;;;5.22;1.98;;;18.70;90.40;;;;;;5053151;28;20771;-66
2022/08/06 04:05:47;;;;;;;3.22;1.70;;;18.70;90.70;;;;;;5052997;28;20185;-66
2022/08/06 04:08:13;;;;;;;1.88;1.73;;;18.60;91.30;;;;;;5053641;28;20239;-66
2022/08/06 04:10:48;;;;;;;2.78;1.50;;;18.60;91.20;;;;;;5053364;28;20185;-67
2022/08/06 04:13:16;;;;;;;2.67;1.70;;;18.50;91.30;;;;;;5053171;28;20212;-68
2022/08/06 04:15:42;;;;;;;3.30;2.10;;;18.50;91.50;;;;;;5053109;28;20189;-66
2022/08/06 04:18:29;;;;;;;2.22;1.85;;;18.50;91.70;;;;;;5052590;28;20204;-66
2022/08/06 04:20:59;;;;;;;2.10;1.83;;;18.50;91.60;;;;;;5053238;28;20212;-66
2022/08/06 04:23:24;;;;;;;4.88;2.30;;;18.60;91.90;;;;;;5052797;28;20718;-66
2022/08/06 04:25:54;;;;;;;3.47;1.75;;;18.60;91.70;;;;;;5052827;28;20173;-67
2022/08/06 04:28:21;;;;;;;2.22;1.70;;;18.60;91.70;;;;;;5052922;28;20173;-66
2022/08/06 04:30:48;;;;;;;2.17;1.63;;;18.60;91.70;;;;;;5053285;28;20524;-66
2022/08/06 04:33:18;;;;;;;4.70;1.80;;;18.60;91.90;;;;;;5052651;28;20192;-66
2022/08/06 04:35:44;;;;;;;3.38;1.55;;;18.60;91.90;;;;;;5052815;28;20178;-66
2022/08/06 04:38:11;;;;;;;1.65;1.50;;;18.60;91.90;;;;;;5052733;28;20177;-66
2022/08/06 04:40:38;;;;;;;6.57;2.40;;;18.60;91.90;;;;;;5052797;28;20747;-66
2022/08/06 04:43:11;;;;;;;2.90;1.42;;;18.60;92.00;;;;;;5052239;28;20201;-66
2022/08/06 04:45:39;;;;;;;1.75;1.65;;;18.70;92.10;;;;;;5052937;28;20542;-66
2022/08/06 04:48:08;;;;;;;1.60;1.48;;;18.80;91.90;;;;;;5051875;28;20245;-66
2022/08/06 04:50:35;;;;;;;3.17;1.90;;;18.90;91.80;;;;;;5052372;28;20235;-67
2022/08/06 04:53:12;;;;;;;4.13;1.80;;;19.00;91.70;;;;;;5052613;28;20204;-66
2022/08/06 04:55:38;;;;;;;1.90;1.50;;;19.10;91.60;;;;;;5052287;28;20180;-67
2022/08/06 04:58:06;;;;;;;1.88;1.67;;;19.20;91.40;;;;;;5052131;28;20188;-66
2022/08/06 05:00:33;;;;;;;2.78;1.80;;;19.20;91.30;;;;;;5052686;28;20178;-66
2022/08/06 05:02:59;;;;;;;3.83;1.63;;;19.20;91.20;;;;;;5051989;28;20209;-66
2022/08/06 05:05:25;;;;;;;1.63;1.50;;;19.30;91.10;;;;;;5052093;28;20672;-66
2022/08/06 05:07:53;;;;;;;3.00;1.55;;;19.40;91.00;;;;;;5052509;28;20188;-66
2022/08/06 05:10:20;;;;;;;3.38;1.60;;;19.50;90.80;;;;;;5052538;28;20192;-66
2022/08/06 05:12:51;;;;;;;2.38;1.92;;;19.60;90.50;;;;;;5051914;28;20204;-66
2022/08/06 05:15:23;;;;;;;3.50;1.70;;;19.70;90.40;;;;;;5052289;28;20718;-66
2022/08/06 05:17:56;;;;;;;4.22;1.60;;;19.90;90.20;;;;;;5051989;28;20752;-66
2022/08/06 05:20:21;;;;;;;2.33;1.58;;;20.20;89.10;;;;;;5040255;28;20178;-66
2022/08/06 05:22:52;;;;;;;1.83;1.38;;;20.50;88.40;;;;;;5052013;28;20578;-66
2022/08/06 05:25:18;;;;;;;1.52;1.42;;;20.90;87.30;;;;;;5051553;28;20235;-66
2022/08/06 05:27:44;;;;;;;1.90;1.40;;;21.40;85.80;;;;;;5051398;28;20192;-66
2022/08/06 05:30:10;;;;;;;3.78;1.45;;;21.80;84.20;;;;;;5051925;28;20268;-66
2022/08/06 05:32:42;;;;;;;2.05;1.45;;;22.20;82.30;;;;;;5050211;28;20295;-67
2022/08/06 05:35:08;;;;;;;3.45;1.42;;;22.50;81.00;;;;;;5051827;28;20193;-67
2022/08/06 05:37:33;;;;;;;2.42;1.35;;;22.60;79.50;;;;;;5051780;28;20505;-67
2022/08/06 05:39:59;;;;;;;4.10;1.50;;;22.70;79.30;;;;;;5051993;28;20181;-66
2022/08/06 05:42:24;;;;;;;1.60;1.50;;;22.90;78.50;;;;;;5051892;28;20182;-67
2022/08/06 05:44:50;;;;;;;1.65;1.40;;;23.10;78.00;;;;;;5051632;28;20193;-67
2022/08/06 05:47:20;;;;;;;3.58;1.60;;;23.30;77.30;;;;;;5051398;28;20173;-68
2022/08/06 05:49:50;;;;;;;2.65;1.63;;;23.50;76.40;;;;;;5051868;28;20231;-68
2022/08/06 05:52:22;;;;;;;2.25;1.58;;;23.60;75.30;;;;;;5051541;28;20730;-67
2022/08/06 05:55:14;;;;;;;1.80;1.60;;;23.80;74.80;;;;;;5051567;28;20632;-67
2022/08/06 05:57:56;;;;;;;1.60;1.50;;;23.90;74.10;;;;;;5051214;28;20212;-67
2022/08/06 06:00:25;;;;;;;4.97;1.52;;;23.90;73.70;;;;;;5051405;28;20505;-67
2022/08/06 06:02:53;;;;;;;1.27;1.25;;;23.90;73.80;;;;;;5051185;28;20307;-67
2022/08/06 06:05:20;;;;;;;2.55;1.50;;;23.90;73.90;;;;;;5051500;28;20623;-67
2022/08/06 06:07:47;;;;;;;1.40;1.30;;;24.10;73.40;;;;;;5051094;28;20695;-67
2022/08/06 06:10:14;;;;;;;1.50;1.40;;;24.30;72.70;;;;;;5051689;28;20690;-68
2022/08/06 06:12:41;;;;;;;6.50;2.78;;;24.30;71.80;;;;;;5051669;28;20181;-65
2022/08/06 06:15:10;;;;;;;5.03;1.48;;;24.30;72.10;;;;;;5051647;28;20593;-66
2022/08/06 06:18:04;;;;;;;2.35;1.52;;;24.50;71.60;;;;;;5051357;28;20166;-66
2022/08/06 06:20:49;;;;;;;4.05;1.40;;;24.60;70.70;;;;;;5051708;28;20262;-62
2022/08/06 06:23:20;;;;;;;1.20;1.10;;;24.80;70.30;;;;;;5050595;28;20818;-61
2022/08/06 06:26:19;;;;;;;4.90;1.30;;;25.00;68.60;;;;;;5050862;28;20538;-63
2022/08/06 06:29:03;;;;;;;1.88;1.10;;;25.10;67.60;;;;;;5051175;28;20185;-63
2022/08/06 06:31:35;;;;;;;2.65;1.05;;;25.30;66.20;;;;;;5051391;28;20280;-65
2022/08/06 06:34:09;;;;;;;1.52;1.10;;;25.50;64.90;;;;;;5051044;28;20177;-64
2022/08/06 06:36:56;;;;;;;3.13;1.10;;;25.70;63.80;;;;;;5051264;28;20191;-63
2022/08/06 06:39:39;;;;;;;2.97;1.27;;;26.10;63.10;;;;;;5051216;28;20263;-66
2022/08/06 06:42:23;;;;;;;3.33;1.30;;;26.60;61.30;;;;;;5055097;28;20648;-66
2022/08/06 06:44:55;;;;;;;5.82;4.60;;;27.00;60.10;;;;;;5055387;28;20271;-63
2022/08/06 06:47:43;;;;;;;2.80;1.90;;;27.40;58.70;;;;;;5055346;28;20217;-62
2022/08/06 06:50:16;;;;;;;1.50;1.20;;;27.80;57.60;;;;;;5054974;28;20208;-64
2022/08/06 06:52:46;;;;;;;4.38;2.75;;;28.40;56.40;;;;;;5055087;28;20260;-64
2022/08/06 06:55:32;;;;;;;4.60;2.05;;;28.80;54.40;;;;;;5055047;28;20200;-64
2022/08/06 06:58:21;;;;;;;2.35;0.90;;;28.40;53.40;;;;;;5055064;28;20177;-64
2022/08/06 07:00:47;;;;;;;1.33;0.80;;;28.20;54.00;;;;;;5054418;28;20184;-63
2022/08/06 07:03:14;;;;;;;2.60;1.10;;;28.10;53.90;;;;;;5055244;28;20747;-64
2022/08/06 07:05:44;;;;;;;1.42;1.30;;;28.30;53.20;;;;;;5054939;28;20181;-64
2022/08/06 07:08:13;;;;;;;3.42;1.10;;;28.20;52.70;;;;;;5055342;28;20193;-63
2022/08/06 07:10:39;;;;;;;1.20;1.10;;;28.20;53.10;;;;;;5054934;28;20268;-63
2022/08/06 07:13:07;;;;;;;2.38;1.10;;;28.30;52.70;;;;;;5055236;28;20182;-63
2022/08/06 07:15:34;;;;;;;1.40;1.13;;;28.20;52.00;;;;;;5054764;28;20185;-63
2022/08/06 07:18:02;;;;;;;2.40;1.00;;;28.00;52.30;;;;;;5054621;28;20188;-63
2022/08/06 07:20:30;;;;;;;2.65;1.23;;;28.00;52.50;;;;;;5054252;28;20177;-63
2022/08/06 07:22:59;;;;;;;5.10;1.00;;;27.80;52.20;;;;;;5054536;28;20227;-64
2022/08/06 07:25:25;;;;;;;1.67;1.23;;;27.70;52.60;;;;;;5055062;28;20181;-63
2022/08/06 07:27:52;;;;;;;3.88;1.15;;;28.00;52.30;;;;;;5054934;28;20632;-63
2022/08/06 07:30:20;;;;;;;0.90;0.90;;;28.30;52.10;;;;;;5054705;28;20705;-64
2022/08/06 07:32:47;;;;;;;5.32;1.15;;;28.80;50.80;;;;;;5061954;28;20177;-63
2022/08/06 07:35:14;;;;;;;1.88;1.00;;;29.20;50.70;;;;;;5055436;28;20522;-64
2022/08/06 07:38:03;;;;;;;3.38;2.28;;;29.50;49.50;;;;;;5052796;28;20188;-63
2022/08/06 07:40:34;;;;;;;3.20;1.60;;;30.00;47.90;;;;;;5047897;28;20221;-63
2022/08/06 07:43:07;;;;;;;3.58;1.10;;;30.00;47.80;;;;;;5054312;28;20204;-64
2022/08/06 07:45:33;;;;;;;3.83;1.67;;;30.10;47.00;;;;;;5054185;28;20191;-64
2022/08/06 07:48:03;;;;;;;3.45;0.90;;;29.90;47.10;;;;;;5054355;28;20186;-64
2022/08/06 07:50:29;;;;;;;8.20;1.13;;;29.80;47.30;;;;;;5053713;28;20182;-64
2022/08/06 07:52:55;;;;;;;2.28;1.08;;;30.00;48.00;;;;;;5053267;28;20718;-64
2022/08/06 07:55:25;;;;;;;0.80;0.80;;;29.80;47.10;;;;;;5053911;28;20701;-64
2022/08/06 07:57:52;;;;;;;1.83;0.95;;;29.50;46.90;;;;;;5053610;28;20708;-64
2022/08/06 08:00:18;;;;;;;24.95;13.98;;;29.60;47.10;;;;;;5050384;28;20694;-63
2022/08/06 08:06:17;;;;;;;4.53;3.40;;;29.70;47.10;;;;;;5053610;28;20193;-64
2022/08/06 08:08:24;;;;;;;2.00;1.30;;;30.00;46.90;;;;;;5036431;28;20192;-64
2022/08/06 08:10:52;;;;;;;1.60;1.00;;;30.30;44.70;;;;;;5052812;28;20192;-64
2022/08/06 08:13:18;;;;;;;3.67;1.60;;;30.20;44.40;;;;;;5052202;28;20209;-64
2022/08/06 08:15:46;;;;;;;2.60;0.88;;;30.50;45.00;;;;;;5054128;28;20632;-63
2022/08/06 08:18:11;;;;;;;3.33;2.55;;;30.70;43.50;;;;;;5053693;28;20174;-63
2022/08/06 08:20:39;;;;;;;4.82;1.33;;;30.30;43.40;;;;;;5053183;28;20181;-63
2022/08/06 08:23:06;;;;;;;1.73;0.98;;;30.00;43.70;;;;;;5053641;28;20703;-63
2022/08/06 08:25:32;;;;;;;3.08;0.82;;;29.70;44.10;;;;;;5053302;28;20193;-63
2022/08/06 08:27:58;;;;;;;4.13;1.00;;;29.50;44.00;;;;;;5052502;28;20178;-63
2022/08/06 08:30:23;;;;;;;3.30;0.68;;;29.20;44.30;;;;;;5054004;28;20178;-63
2022/08/06 08:32:49;;;;;;;8.25;1.02;;;29.10;44.40;;;;;;5053687;28;20531;-63
2022/08/06 08:35:15;;;;;;;3.10;0.73;;;29.10;44.10;;;;;;5053335;28;20503;-63
2022/08/06 08:37:41;;;;;;;0.63;0.63;;;29.00;44.10;;;;;;5053210;28;20192;-64
2022/08/06 08:40:07;;;;;;;3.67;1.40;;;28.90;44.20;;;;;;5052338;28;20189;-63
2022/08/06 08:42:39;;;;;;;2.15;1.13;;;28.80;44.30;;;;;;5052637;28;20188;-64
2022/08/06 08:45:06;;;;;;;2.13;1.00;;;28.80;44.30;;;;;;5053545;28;20815;-64
2022/08/06 08:47:34;;;;;;;1.92;0.63;;;28.80;44.30;;;;;;5055518;28;20177;-64
2022/08/06 08:50:02;;;;;;;2.92;0.93;;;29.10;44.00;;;;;;5052282;28;20186;-63
2022/08/06 08:52:40;;;;;;;2.25;0.70;;;29.40;43.10;;;;;;5052889;28;20174;-64
2022/08/06 08:55:11;;;;;;;2.53;0.88;;;29.30;42.20;;;;;;5053097;28;20178;-64
2022/08/06 08:57:37;;;;;;;0.95;0.70;;;29.10;43.10;;;;;;5051713;28;20605;-63
2022/08/06 09:00:05;;;;;;;3.08;0.80;;;28.90;43.60;;;;;;5052278;28;20173;-63
2022/08/06 09:02:31;;;;;;;3.70;1.00;;;29.00;43.60;;;;;;5052989;28;20178;-63
2022/08/06 09:04:58;;;;;;;1.02;0.90;;;29.40;43.90;;;;;;5052080;28;20228;-63
2022/08/06 09:07:24;;;;;;;1.23;0.70;;;29.60;42.50;;;;;;5052908;28;20165;-63
2022/08/06 09:09:50;;;;;;;3.42;0.80;;;29.70;42.80;;;;;;5053088;28;20169;-63
2022/08/06 09:12:16;;;;;;;0.93;0.75;;;29.70;42.30;;;;;;5052036;28;20604;-63
2022/08/06 09:14:43;;;;;;;3.08;1.23;;;29.50;42.30;;;;;;5051940;28;20178;-63
2022/08/06 09:17:09;;;;;;;2.50;1.20;;;29.20;42.60;;;;;;5052258;28;20204;-63
2022/08/06 09:19:34;;;;;;;1.90;1.02;;;29.30;43.50;;;;;;5052374;28;20213;-63
2022/08/06 09:22:00;;;;;;;1.92;1.17;;;29.50;42.10;;;;;;5051472;28;20183;-63
2022/08/06 09:24:26;;;;;;;1.02;0.70;;;29.30;42.10;;;;;;5052012;28;20221;-63
2022/08/06 09:27:13;;;;;;;4.20;0.75;;;29.10;42.20;;;;;;5052304;28;20173;-63
2022/08/06 09:30:07;;;;;;;2.65;0.90;;;29.00;42.50;;;;;;5052197;28;20193;-63
2022/08/06 09:32:50;;;;;;;0.82;0.70;;;28.60;42.90;;;;;;5048810;28;20658;-65
2022/08/06 09:35:21;;;;;;;0.80;0.60;;;28.40;43.00;;;;;;5052189;28;20648;-65
2022/08/06 09:37:48;;;;;;;1.45;0.60;;;28.50;43.20;;;;;;5052155;28;20331;-65
2022/08/06 09:40:16;;;;;;;0.88;0.60;;;28.80;42.70;;;;;;5051387;28;20579;-65
2022/08/06 09:42:48;;;;;;;0.63;0.52;;;28.70;42.50;;;;;;5051989;28;20555;-65
2022/08/06 09:45:15;;;;;;;3.45;0.73;;;29.00;43.60;;;;;;5049989;28;20552;-65
2022/08/06 09:47:41;;;;;;;1.30;0.77;;;29.50;42.60;;;;;;5051467;28;20177;-65
2022/08/06 09:50:08;;;;;;;2.20;1.20;;;29.60;41.80;;;;;;5051466;28;20223;-65
2022/08/06 09:52:34;;;;;;;1.48;0.52;;;29.80;41.40;;;;;;5051443;28;20181;-65
2022/08/06 09:55:00;;;;;;;2.00;0.70;;;30.20;41.00;;;;;;5052250;28;20178;-65
2022/08/06 09:57:41;;;;;;;1.02;0.68;;;30.40;40.90;;;;;;5051491;28;20871;-65
2022/08/06 10:00:08;;;;;;;0.55;0.52;;;30.60;40.00;;;;;;5051382;28;20281;-65
2022/08/06 10:02:34;;;;;;;3.28;0.85;;;30.80;40.20;;;;;;5051567;28;20513;-66
2022/08/06 10:05:08;;;;;;;1.98;1.05;;;30.80;39.70;;;;;;5051481;28;20572;-65
2022/08/06 10:07:33;;;;;;;1.02;0.70;;;30.80;39.60;;;;;;5051481;28;20185;-65
2022/08/06 10:09:59;;;;;;;3.65;0.95;;;31.00;40.10;;;;;;5050946;28;20223;-65
2022/08/06 10:12:24;;;;;;;1.52;0.68;;;31.10;39.40;;;;;;5051401;28;20173;-65
2022/08/06 10:14:50;;;;;;;1.70;0.70;;;30.90;39.20;;;;;;5050266;28;20174;-65
2022/08/06 10:17:21;;;;;;;3.45;1.13;;;30.80;39.60;;;;;;5049492;28;20364;-65
2022/08/06 10:20:04;;;;;;;2.90;0.60;;;30.90;39.50;;;;;;5050238;28;20212;-65
2022/08/06 10:22:30;;;;;;;0.82;0.68;;;30.90;39.20;;;;;;5050803;28;20185;-64
2022/08/06 10:24:59;;;;;;;3.53;1.00;;;30.70;39.20;;;;;;5050838;28;20247;-65
2022/08/06 10:27:29;;;;;;;3.08;0.65;;;30.50;40.10;;;;;;5051153;28;20173;-64
2022/08/06 10:30:02;;;;;;;1.33;0.75;;;30.20;39.70;;;;;;5051313;28;20189;-63
2022/08/06 10:32:50;;;;;;;0.93;0.70;;;29.40;40.10;;;;;;5050748;28;20235;-64
2022/08/06 10:35:18;;;;;;;3.13;0.60;;;29.20;40.90;;;;;;5050953;28;20189;-64
2022/08/06 10:37:47;;;;;;;3.30;0.77;;;29.40;40.90;;;;;;5051357;28;20236;-64
2022/08/06 10:40:14;;;;;;;0.93;0.68;;;29.80;41.80;;;;;;5050568;28;20185;-64
2022/08/06 10:42:40;;;;;;;0.55;0.50;;;30.00;41.20;;;;;;5050963;28;20192;-64
2022/08/06 10:45:08;;;;;;;2.80;0.68;;;30.40;40.10;;;;;;5049937;28;20181;-64
2022/08/06 10:47:34;;;;;;;1.85;0.70;;;30.30;39.70;;;;;;5051398;28;20181;-64
2022/08/06 10:50:01;;;;;;;3.50;0.73;;;29.90;39.90;;;;;;5050826;28;20177;-64
2022/08/06 10:52:28;;;;;;;3.22;0.70;;;29.60;40.90;;;;;;5049760;28;20181;-64
2022/08/06 10:54:56;;;;;;;1.33;0.90;;;29.70;40.90;;;;;;5049964;28;20177;-64
2022/08/06 10:57:22;;;;;;;1.42;1.02;;;29.80;40.30;;;;;;5050088;28;20792;-64
2022/08/06 10:59:47;;;;;;;1.90;1.17;;;29.80;40.40;;;;;;5051362;28;20532;-64
2022/08/06 11:02:37;;;;;;;2.35;0.95;;;29.80;40.10;;;;;;5050574;28;20212;-64
2022/08/06 11:05:08;;;;;;;1.38;0.82;;;30.10;41.00;;;;;;5050755;28;20196;-64
2022/08/06 11:08:05;;;;;;;2.58;0.95;;;30.40;39.90;;;;;;5050656;28;20181;-64
2022/08/06 11:10:58;;;;;;;2.70;0.80;;;30.70;39.70;;;;;;5051134;28;20188;-64
2022/08/06 11:13:23;;;;;;;4.20;0.80;;;31.00;39.30;;;;;;5050795;28;20209;-64
2022/08/06 11:15:50;;;;;;;1.50;0.68;;;30.90;38.70;;;;;;5050485;28;20204;-64
2022/08/06 11:18:16;;;;;;;1.67;0.70;;;30.70;38.70;;;;;;5050349;28;20185;-64
2022/08/06 11:20:47;;;;;;;1.58;0.70;;;30.70;38.80;;;;;;5050737;28;20178;-65
2022/08/06 11:23:12;;;;;;;1.77;0.63;;;30.70;38.70;;;;;;5050645;28;20232;-65
2022/08/06 11:25:47;;;;;;;2.00;0.60;;;30.40;39.00;;;;;;5051115;28;20189;-64
2022/08/06 11:28:15;;;;;;;1.50;0.80;;;30.40;39.70;;;;;;5053205;28;20571;-65
2022/08/06 11:30:43;;;;;;;3.50;0.80;;;30.30;39.20;;;;;;5054094;28;20183;-64
2022/08/06 11:33:10;;;;;;;1.88;0.70;;;30.30;39.50;;;;;;5054278;28;20177;-65
2022/08/06 11:35:36;;;;;;;1.38;0.68;;;30.20;39.80;;;;;;5054272;28;20181;-64
2022/08/06 11:38:07;;;;;;;2.08;0.80;;;30.60;39.80;;;;;;5053987;28;20211;-65
2022/08/06 11:40:59;;;;;;;3.35;1.35;;;30.90;39.00;;;;;;5054125;28;20185;-65
2022/08/06 11:43:47;;;;;;;1.33;0.70;;;30.80;39.50;;;;;;5053798;28;20608;-65
2022/08/06 11:46:30;;;;;;;2.45;0.80;;;30.40;39.20;;;;;;5047573;28;20208;-66
2022/08/06 11:48:59;;;;;;;0.93;0.70;;;30.30;39.80;;;;;;5052874;28;20177;-67
2022/08/06 11:51:51;;;;;;;1.52;0.80;;;30.30;40.00;;;;;;5064994;28;20169;-67
2022/08/06 11:54:28;;;;;;;1.48;0.90;;;30.40;39.40;;;;;;5058270;28;20177;-65
2022/08/06 11:57:06;;;;;;;2.63;0.82;;;30.50;39.30;;;;;;5059136;28;20173;-65
2022/08/06 11:59:44;;;;;;;0.60;0.60;;;30.60;39.20;;;;;;5054091;28;20260;-66
2022/08/06 12:02:11;;;;;;;1.75;0.88;;;30.70;38.60;;;;;;5053922;28;20180;-66
2022/08/06 12:04:44;;;;;;;1.73;0.60;;;30.80;38.60;;;;;;5055008;28;20351;-66
2022/08/06 12:07:20;;;;;;;1.50;0.70;;;30.80;38.00;;;;;;5056729;28;20784;-66
2022/08/06 12:09:58;;;;;;;0.93;0.70;;;30.60;39.10;;;;;;5054561;28;20188;-65
2022/08/06 12:12:24;;;;;;;0.60;0.60;;;30.50;39.00;;;;;;5044860;28;20176;-66
2022/08/06 12:14:50;;;;;;;2.78;0.90;;;30.60;38.70;;;;;;5058636;28;20173;-66
2022/08/06 12:17:18;;;;;;;1.13;0.88;;;30.70;39.10;;;;;;5053374;28;20181;-67
2022/08/06 12:19:45;;;;;;;2.20;0.65;;;30.80;38.10;;;;;;5053589;28;20637;-66
2022/08/06 12:22:13;;;;;;;1.20;0.68;;;30.70;38.20;;;;;;5053258;28;20190;-66
2022/08/06 12:24:40;;;;;;;1.02;0.70;;;30.60;37.90;;;;;;5051282;28;20221;-68
2022/08/06 12:27:07;;;;;;;1.75;0.80;;;30.30;38.60;;;;;;5052992;28;20181;-68
2022/08/06 12:29:33;;;;;;;0.57;0.57;;;30.20;38.80;;;;;;5052905;28;20188;-68
2022/08/06 12:31:59;;;;;;;0.63;0.63;;;30.00;38.90;;;;;;5053496;28;20633;-66
2022/08/06 12:34:27;;;;;;;0.68;0.68;;;29.60;39.10;;;;;;5052875;28;20185;-67
2022/08/06 12:36:52;;;;;;;0.95;0.80;;;29.40;39.90;;;;;;5050581;28;20195;-67
2022/08/06 12:39:18;;;;;;;0.52;0.50;;;29.40;39.80;;;;;;5052183;28;20264;-66
2022/08/06 12:41:44;;;;;;;0.82;0.60;;;29.50;40.10;;;;;;5053266;28;20284;-65
2022/08/06 12:44:10;;;;;;;1.55;0.95;;;29.70;39.60;;;;;;5052504;28;20209;-66
2022/08/06 12:46:36;;;;;;;2.40;0.68;;;29.90;40.00;;;;;;5053197;28;20185;-66
2022/08/06 12:49:02;;;;;;;2.30;0.88;;;30.00;40.20;;;;;;5052984;28;20625;-67
2022/08/06 12:51:28;;;;;;;2.70;0.88;;;30.20;38.90;;;;;;5053258;28;20181;-67
2022/08/06 12:53:59;;;;;;;1.60;1.00;;;30.20;38.60;;;;;;5053286;28;20185;-66
2022/08/06 12:56:28;;;;;;;3.83;0.90;;;30.30;38.40;;;;;;5052543;28;20257;-66
2022/08/06 12:58:55;;;;;;;1.95;0.70;;;30.40;38.20;;;;;;5053317;28;20174;-66
2022/08/06 13:01:23;;;;;;;0.60;0.60;;;30.50;37.80;;;;;;5052063;28;20664;-66
2022/08/06 13:03:52;;;;;;;0.60;0.60;;;30.50;37.90;;;;;;5052762;28;20592;-66